sensor_id;sensor_type;location;lat;lon;timestamp;P1;durP1;ratioP1;P2;durP2;ratioP2
69989;SDS011;57331;52.054;5.294;2024-03-06T00:00:32;43.80;;;22.58;;
69989;SDS011;57331;52.054;5.294;2024-03-06T00:02:59;44.35;;;22.42;;
69989;SDS011;57331;52.054;5.294;2024-03-06T00:05:26;48.80;;;23.02;;
69989;SDS011;57331;52.054;5.294;2024-03-06T00:07:54;44.07;;;23.13;;
69989;SDS011;57331;52.054;5.294;2024-03-06T00:10:21;48.17;;;23.35;;
69989;SDS011;57331;52.054;5.294;2024-03-06T00:12:48;45.08;;;23.15;;
69989;SDS011;57331;52.054;5.294;2024-03-06T00:15:15;47.40;;;22.13;;
69989;SDS011;57331;52.054;5.294;2024-03-06T00:17:42;41.97;;;22.33;;
69989;SDS011;57331;52.054;5.294;2024-03-06T00:20:09;43.83;;;21.00;;
69989;SDS011;57331;52.054;5.294;2024-03-06T00:22:37;44.92;;;21.85;;
69989;SDS011;57331;52.054;5.294;2024-03-06T00:25:04;43.50;;;21.17;;
69989;SDS011;57331;52.054;5.294;2024-03-06T00:27:32;46.05;;;21.88;;
69989;SDS011;57331;52.054;5.294;2024-03-06T00:29:59;41.20;;;20.88;;
69989;SDS011;57331;52.054;5.294;2024-03-06T00:32:26;39.30;;;20.37;;
69989;SDS011;57331;52.054;5.294;2024-03-06T00:34:54;38.25;;;20.60;;
69989;SDS011;57331;52.054;5.294;2024-03-06T00:37:22;44.10;;;21.30;;
69989;SDS011;57331;52.054;5.294;2024-03-06T00:39:49;38.25;;;20.20;;
69989;SDS011;57331;52.054;5.294;2024-03-06T00:42:17;42.35;;;20.73;;
69989;SDS011;57331;52.054;5.294;2024-03-06T00:44:44;39.40;;;20.40;;
69989;SDS011;57331;52.054;5.294;2024-03-06T00:47:11;37.25;;;19.60;;
69989;SDS011;57331;52.054;5.294;2024-03-06T00:49:38;42.17;;;20.73;;
69989;SDS011;57331;52.054;5.294;2024-03-06T00:52:08;43.45;;;21.23;;
69989;SDS011;57331;52.054;5.294;2024-03-06T00:54:35;37.92;;;20.33;;
69989;SDS011;57331;52.054;5.294;2024-03-06T00:57:03;40.07;;;20.93;;
69989;SDS011;57331;52.054;5.294;2024-03-06T00:59:30;37.30;;;20.30;;
69989;SDS011;57331;52.054;5.294;2024-03-06T01:01:57;37.90;;;20.52;;
69989;SDS011;57331;52.054;5.294;2024-03-06T01:04:24;39.15;;;19.00;;
69989;SDS011;57331;52.054;5.294;2024-03-06T01:06:51;43.50;;;22.25;;
69989;SDS011;57331;52.054;5.294;2024-03-06T01:09:18;45.17;;;21.73;;
69989;SDS011;57331;52.054;5.294;2024-03-06T01:11:45;41.53;;;21.58;;
69989;SDS011;57331;52.054;5.294;2024-03-06T01:14:14;39.95;;;22.15;;
69989;SDS011;57331;52.054;5.294;2024-03-06T01:16:42;38.20;;;20.10;;
69989;SDS011;57331;52.054;5.294;2024-03-06T01:19:10;47.30;;;21.95;;
69989;SDS011;57331;52.054;5.294;2024-03-06T01:21:38;44.90;;;22.67;;
69989;SDS011;57331;52.054;5.294;2024-03-06T01:24:05;49.28;;;24.10;;
69989;SDS011;57331;52.054;5.294;2024-03-06T01:26:32;47.78;;;23.48;;
69989;SDS011;57331;52.054;5.294;2024-03-06T01:28:59;48.08;;;22.80;;
69989;SDS011;57331;52.054;5.294;2024-03-06T01:31:26;42.35;;;21.45;;
69989;SDS011;57331;52.054;5.294;2024-03-06T01:33:54;44.50;;;23.13;;
69989;SDS011;57331;52.054;5.294;2024-03-06T01:36:21;42.85;;;22.95;;
69989;SDS011;57331;52.054;5.294;2024-03-06T01:38:48;42.22;;;21.80;;
69989;SDS011;57331;52.054;5.294;2024-03-06T01:41:15;40.78;;;21.67;;
69989;SDS011;57331;52.054;5.294;2024-03-06T01:43:42;47.35;;;22.13;;
69989;SDS011;57331;52.054;5.294;2024-03-06T01:46:10;41.60;;;21.10;;
69989;SDS011;57331;52.054;5.294;2024-03-06T01:48:37;40.40;;;20.90;;
69989;SDS011;57331;52.054;5.294;2024-03-06T01:51:05;37.60;;;20.30;;
69989;SDS011;57331;52.054;5.294;2024-03-06T01:53:32;46.33;;;20.25;;
69989;SDS011;57331;52.054;5.294;2024-03-06T01:56:00;44.00;;;21.67;;
69989;SDS011;57331;52.054;5.294;2024-03-06T01:58:27;38.83;;;19.20;;
69989;SDS011;57331;52.054;5.294;2024-03-06T02:00:55;41.03;;;21.77;;
69989;SDS011;57331;52.054;5.294;2024-03-06T02:03:22;40.50;;;20.90;;
69989;SDS011;57331;52.054;5.294;2024-03-06T02:05:51;40.70;;;21.70;;
69989;SDS011;57331;52.054;5.294;2024-03-06T02:08:19;40.42;;;21.40;;
69989;SDS011;57331;52.054;5.294;2024-03-06T02:10:47;47.47;;;20.80;;
69989;SDS011;57331;52.054;5.294;2024-03-06T02:13:14;43.03;;;20.15;;
69989;SDS011;57331;52.054;5.294;2024-03-06T02:15:43;39.20;;;21.20;;
69989;SDS011;57331;52.054;5.294;2024-03-06T02:18:11;41.78;;;21.73;;
69989;SDS011;57331;52.054;5.294;2024-03-06T02:20:39;42.45;;;21.23;;
69989;SDS011;57331;52.054;5.294;2024-03-06T02:23:07;42.60;;;22.07;;
69989;SDS011;57331;52.054;5.294;2024-03-06T02:25:34;45.75;;;22.48;;
69989;SDS011;57331;52.054;5.294;2024-03-06T02:28:01;41.58;;;21.63;;
69989;SDS011;57331;52.054;5.294;2024-03-06T02:30:29;46.80;;;21.42;;
69989;SDS011;57331;52.054;5.294;2024-03-06T02:33:02;48.03;;;21.70;;
69989;SDS011;57331;52.054;5.294;2024-03-06T02:35:36;49.43;;;21.87;;
69989;SDS011;57331;52.054;5.294;2024-03-06T02:38:04;49.13;;;22.30;;
69989;SDS011;57331;52.054;5.294;2024-03-06T02:40:32;44.53;;;23.15;;
69989;SDS011;57331;52.054;5.294;2024-03-06T02:42:59;49.72;;;22.30;;
69989;SDS011;57331;52.054;5.294;2024-03-06T02:45:27;45.95;;;21.08;;
69989;SDS011;57331;52.054;5.294;2024-03-06T02:47:55;42.90;;;22.37;;
69989;SDS011;57331;52.054;5.294;2024-03-06T02:50:22;43.55;;;21.42;;
69989;SDS011;57331;52.054;5.294;2024-03-06T02:52:50;48.50;;;21.00;;
69989;SDS011;57331;52.054;5.294;2024-03-06T02:55:19;52.55;;;22.30;;
69989;SDS011;57331;52.054;5.294;2024-03-06T02:57:46;44.33;;;21.17;;
69989;SDS011;57331;52.054;5.294;2024-03-06T03:00:13;39.87;;;20.23;;
69989;SDS011;57331;52.054;5.294;2024-03-06T03:02:42;46.78;;;22.38;;
69989;SDS011;57331;52.054;5.294;2024-03-06T03:05:09;42.00;;;20.33;;
69989;SDS011;57331;52.054;5.294;2024-03-06T03:07:37;44.05;;;20.90;;
69989;SDS011;57331;52.054;5.294;2024-03-06T03:10:04;41.70;;;20.58;;
69989;SDS011;57331;52.054;5.294;2024-03-06T03:12:32;47.50;;;19.47;;
69989;SDS011;57331;52.054;5.294;2024-03-06T03:15:00;42.53;;;20.80;;
69989;SDS011;57331;52.054;5.294;2024-03-06T03:17:27;39.72;;;20.30;;
69989;SDS011;57331;52.054;5.294;2024-03-06T03:19:54;37.33;;;19.58;;
69989;SDS011;57331;52.054;5.294;2024-03-06T03:22:22;42.83;;;20.83;;
69989;SDS011;57331;52.054;5.294;2024-03-06T03:24:49;48.63;;;21.50;;
69989;SDS011;57331;52.054;5.294;2024-03-06T03:27:16;43.85;;;21.35;;
69989;SDS011;57331;52.054;5.294;2024-03-06T03:29:44;44.05;;;21.13;;
69989;SDS011;57331;52.054;5.294;2024-03-06T03:32:11;41.83;;;19.55;;
69989;SDS011;57331;52.054;5.294;2024-03-06T03:34:38;46.83;;;22.42;;
69989;SDS011;57331;52.054;5.294;2024-03-06T03:37:06;43.10;;;21.93;;
69989;SDS011;57331;52.054;5.294;2024-03-06T03:39:32;42.80;;;20.38;;
69989;SDS011;57331;52.054;5.294;2024-03-06T03:42:00;43.60;;;21.73;;
69989;SDS011;57331;52.054;5.294;2024-03-06T03:44:27;41.33;;;19.98;;
69989;SDS011;57331;52.054;5.294;2024-03-06T03:46:54;45.92;;;21.63;;
69989;SDS011;57331;52.054;5.294;2024-03-06T03:49:22;46.73;;;22.07;;
69989;SDS011;57331;52.054;5.294;2024-03-06T03:51:49;48.47;;;23.08;;
69989;SDS011;57331;52.054;5.294;2024-03-06T03:54:17;49.35;;;22.55;;
69989;SDS011;57331;52.054;5.294;2024-03-06T03:56:43;54.47;;;23.17;;
69989;SDS011;57331;52.054;5.294;2024-03-06T03:59:11;47.60;;;22.35;;
69989;SDS011;57331;52.054;5.294;2024-03-06T04:01:38;47.17;;;23.37;;
69989;SDS011;57331;52.054;5.294;2024-03-06T04:04:06;46.75;;;22.42;;
69989;SDS011;57331;52.054;5.294;2024-03-06T04:06:34;47.55;;;22.42;;
69989;SDS011;57331;52.054;5.294;2024-03-06T04:09:01;42.00;;;20.77;;
69989;SDS011;57331;52.054;5.294;2024-03-06T04:11:28;49.88;;;21.52;;
69989;SDS011;57331;52.054;5.294;2024-03-06T04:13:56;44.23;;;20.87;;
69989;SDS011;57331;52.054;5.294;2024-03-06T04:16:23;47.60;;;20.92;;
69989;SDS011;57331;52.054;5.294;2024-03-06T04:18:51;56.57;;;22.97;;
69989;SDS011;57331;52.054;5.294;2024-03-06T04:21:18;52.03;;;23.45;;
69989;SDS011;57331;52.054;5.294;2024-03-06T04:23:45;47.53;;;24.83;;
69989;SDS011;57331;52.054;5.294;2024-03-06T04:26:13;46.80;;;22.27;;
69989;SDS011;57331;52.054;5.294;2024-03-06T04:28:40;51.08;;;24.17;;
69989;SDS011;57331;52.054;5.294;2024-03-06T04:31:08;50.25;;;23.67;;
69989;SDS011;57331;52.054;5.294;2024-03-06T04:33:35;49.17;;;22.48;;
69989;SDS011;57331;52.054;5.294;2024-03-06T04:36:03;49.08;;;23.52;;
69989;SDS011;57331;52.054;5.294;2024-03-06T04:38:32;52.60;;;24.47;;
69989;SDS011;57331;52.054;5.294;2024-03-06T04:40:59;48.22;;;23.48;;
69989;SDS011;57331;52.054;5.294;2024-03-06T04:43:27;48.28;;;22.40;;
69989;SDS011;57331;52.054;5.294;2024-03-06T04:45:54;51.33;;;22.23;;
69989;SDS011;57331;52.054;5.294;2024-03-06T04:48:21;51.17;;;23.58;;
69989;SDS011;57331;52.054;5.294;2024-03-06T04:50:49;51.90;;;23.80;;
69989;SDS011;57331;52.054;5.294;2024-03-06T04:53:15;47.60;;;22.20;;
69989;SDS011;57331;52.054;5.294;2024-03-06T04:55:43;45.85;;;22.17;;
69989;SDS011;57331;52.054;5.294;2024-03-06T04:58:12;49.15;;;21.85;;
69989;SDS011;57331;52.054;5.294;2024-03-06T05:00:39;45.83;;;21.98;;
69989;SDS011;57331;52.054;5.294;2024-03-06T05:03:06;46.90;;;22.43;;
69989;SDS011;57331;52.054;5.294;2024-03-06T05:05:51;46.17;;;21.27;;
69989;SDS011;57331;52.054;5.294;2024-03-06T05:08:35;42.33;;;21.45;;
69989;SDS011;57331;52.054;5.294;2024-03-06T05:11:21;43.92;;;21.50;;
69989;SDS011;57331;52.054;5.294;2024-03-06T05:14:06;44.25;;;19.73;;
69989;SDS011;57331;52.054;5.294;2024-03-06T05:16:51;46.10;;;21.93;;
69989;SDS011;57331;52.054;5.294;2024-03-06T05:19:37;47.13;;;21.83;;
69989;SDS011;57331;52.054;5.294;2024-03-06T05:22:22;47.97;;;22.02;;
69989;SDS011;57331;52.054;5.294;2024-03-06T05:25:06;48.40;;;22.88;;
69989;SDS011;57331;52.054;5.294;2024-03-06T05:27:51;46.80;;;21.77;;
69989;SDS011;57331;52.054;5.294;2024-03-06T05:30:36;44.77;;;21.97;;
69989;SDS011;57331;52.054;5.294;2024-03-06T05:33:21;51.97;;;23.65;;
69989;SDS011;57331;52.054;5.294;2024-03-06T05:36:06;61.22;;;25.05;;
69989;SDS011;57331;52.054;5.294;2024-03-06T05:38:50;49.30;;;23.38;;
69989;SDS011;57331;52.054;5.294;2024-03-06T05:41:36;53.67;;;25.35;;
69989;SDS011;57331;52.054;5.294;2024-03-06T05:44:20;55.43;;;25.60;;
69989;SDS011;57331;52.054;5.294;2024-03-06T05:47:05;60.67;;;27.38;;
69989;SDS011;57331;52.054;5.294;2024-03-06T05:49:50;66.75;;;29.90;;
69989;SDS011;57331;52.054;5.294;2024-03-06T05:52:34;62.28;;;28.08;;
69989;SDS011;57331;52.054;5.294;2024-03-06T05:55:19;65.68;;;26.02;;
69989;SDS011;57331;52.054;5.294;2024-03-06T05:58:04;74.57;;;29.23;;
69989;SDS011;57331;52.054;5.294;2024-03-06T06:00:37;70.63;;;29.90;;
69989;SDS011;57331;52.054;5.294;2024-03-06T06:03:06;71.18;;;28.50;;
69989;SDS011;57331;52.054;5.294;2024-03-06T06:05:33;64.53;;;26.23;;
69989;SDS011;57331;52.054;5.294;2024-03-06T06:08:02;66.15;;;27.70;;
69989;SDS011;57331;52.054;5.294;2024-03-06T06:10:30;64.63;;;28.37;;
69989;SDS011;57331;52.054;5.294;2024-03-06T06:12:57;68.68;;;25.83;;
69989;SDS011;57331;52.054;5.294;2024-03-06T06:15:24;68.35;;;28.35;;
69989;SDS011;57331;52.054;5.294;2024-03-06T06:17:51;65.78;;;27.25;;
69989;SDS011;57331;52.054;5.294;2024-03-06T06:20:19;73.68;;;27.45;;
69989;SDS011;57331;52.054;5.294;2024-03-06T06:22:46;97.50;;;30.73;;
69989;SDS011;57331;52.054;5.294;2024-03-06T06:25:14;128.77;;;35.35;;
69989;SDS011;57331;52.054;5.294;2024-03-06T06:27:43;91.95;;;32.42;;
69989;SDS011;57331;52.054;5.294;2024-03-06T06:30:10;122.78;;;34.05;;
69989;SDS011;57331;52.054;5.294;2024-03-06T06:32:39;140.60;;;32.45;;
69989;SDS011;57331;52.054;5.294;2024-03-06T06:35:09;92.47;;;32.47;;
69989;SDS011;57331;52.054;5.294;2024-03-06T06:37:37;104.63;;;32.63;;
69989;SDS011;57331;52.054;5.294;2024-03-06T06:40:05;98.32;;;34.03;;
69989;SDS011;57331;52.054;5.294;2024-03-06T06:42:34;80.10;;;30.27;;
69989;SDS011;57331;52.054;5.294;2024-03-06T06:45:03;86.22;;;32.33;;
69989;SDS011;57331;52.054;5.294;2024-03-06T06:47:30;111.47;;;34.20;;
69989;SDS011;57331;52.054;5.294;2024-03-06T06:49:57;93.40;;;32.40;;
69989;SDS011;57331;52.054;5.294;2024-03-06T06:52:25;115.53;;;35.15;;
69989;SDS011;57331;52.054;5.294;2024-03-06T06:54:54;158.48;;;53.13;;
69989;SDS011;57331;52.054;5.294;2024-03-06T06:57:22;115.90;;;36.65;;
69989;SDS011;57331;52.054;5.294;2024-03-06T06:59:49;115.63;;;34.53;;
69989;SDS011;57331;52.054;5.294;2024-03-06T07:02:16;125.88;;;35.33;;
69989;SDS011;57331;52.054;5.294;2024-03-06T07:04:44;118.00;;;35.67;;
69989;SDS011;57331;52.054;5.294;2024-03-06T07:07:11;107.40;;;35.78;;
69989;SDS011;57331;52.054;5.294;2024-03-06T07:09:40;98.07;;;33.53;;
69989;SDS011;57331;52.054;5.294;2024-03-06T07:12:07;96.10;;;34.33;;
69989;SDS011;57331;52.054;5.294;2024-03-06T07:14:35;92.43;;;33.22;;
69989;SDS011;57331;52.054;5.294;2024-03-06T07:17:02;98.47;;;39.40;;
69989;SDS011;57331;52.054;5.294;2024-03-06T07:19:29;78.93;;;31.02;;
69989;SDS011;57331;52.054;5.294;2024-03-06T07:21:57;100.30;;;33.75;;
69989;SDS011;57331;52.054;5.294;2024-03-06T07:24:24;65.70;;;29.40;;
69989;SDS011;57331;52.054;5.294;2024-03-06T07:26:51;77.18;;;30.70;;
69989;SDS011;57331;52.054;5.294;2024-03-06T07:29:18;71.68;;;30.80;;
69989;SDS011;57331;52.054;5.294;2024-03-06T07:31:45;75.50;;;30.40;;
69989;SDS011;57331;52.054;5.294;2024-03-06T07:34:13;89.05;;;30.92;;
69989;SDS011;57331;52.054;5.294;2024-03-06T07:36:41;87.17;;;30.00;;
69989;SDS011;57331;52.054;5.294;2024-03-06T07:39:08;92.65;;;29.08;;
69989;SDS011;57331;52.054;5.294;2024-03-06T07:41:36;76.00;;;29.55;;
69989;SDS011;57331;52.054;5.294;2024-03-06T07:44:03;80.70;;;29.88;;
69989;SDS011;57331;52.054;5.294;2024-03-06T07:46:30;82.80;;;22.95;;
69989;SDS011;57331;52.054;5.294;2024-03-06T07:48:58;102.27;;;27.03;;
69989;SDS011;57331;52.054;5.294;2024-03-06T07:51:25;130.13;;;33.95;;
69989;SDS011;57331;52.054;5.294;2024-03-06T07:53:52;127.90;;;32.17;;
69989;SDS011;57331;52.054;5.294;2024-03-06T07:56:20;129.65;;;31.00;;
69989;SDS011;57331;52.054;5.294;2024-03-06T07:58:48;114.25;;;28.48;;
69989;SDS011;57331;52.054;5.294;2024-03-06T08:01:16;68.90;;;28.87;;
69989;SDS011;57331;52.054;5.294;2024-03-06T08:03:43;87.68;;;29.83;;
69989;SDS011;57331;52.054;5.294;2024-03-06T08:06:10;128.40;;;30.48;;
69989;SDS011;57331;52.054;5.294;2024-03-06T08:08:41;92.57;;;27.80;;
69989;SDS011;57331;52.054;5.294;2024-03-06T08:11:11;109.38;;;29.02;;
69989;SDS011;57331;52.054;5.294;2024-03-06T08:13:38;106.77;;;28.03;;
69989;SDS011;57331;52.054;5.294;2024-03-06T08:16:06;92.88;;;28.25;;
69989;SDS011;57331;52.054;5.294;2024-03-06T08:18:34;109.20;;;30.38;;
69989;SDS011;57331;52.054;5.294;2024-03-06T08:21:03;91.70;;;29.35;;
69989;SDS011;57331;52.054;5.294;2024-03-06T08:23:31;62.17;;;29.63;;
69989;SDS011;57331;52.054;5.294;2024-03-06T08:25:59;63.93;;;29.20;;
69989;SDS011;57331;52.054;5.294;2024-03-06T08:28:27;90.38;;;28.05;;
69989;SDS011;57331;52.054;5.294;2024-03-06T08:30:54;116.93;;;29.48;;
69989;SDS011;57331;52.054;5.294;2024-03-06T08:33:21;67.47;;;29.40;;
69989;SDS011;57331;52.054;5.294;2024-03-06T08:35:49;70.63;;;31.20;;
69989;SDS011;57331;52.054;5.294;2024-03-06T08:38:17;105.27;;;32.40;;
69989;SDS011;57331;52.054;5.294;2024-03-06T08:40:44;75.30;;;30.92;;
69989;SDS011;57331;52.054;5.294;2024-03-06T08:43:12;74.85;;;29.63;;
69989;SDS011;57331;52.054;5.294;2024-03-06T08:45:41;70.70;;;30.08;;
69989;SDS011;57331;52.054;5.294;2024-03-06T08:48:09;66.82;;;30.13;;
69989;SDS011;57331;52.054;5.294;2024-03-06T08:50:38;74.93;;;28.70;;
69989;SDS011;57331;52.054;5.294;2024-03-06T08:53:06;65.72;;;27.52;;
69989;SDS011;57331;52.054;5.294;2024-03-06T08:55:33;70.80;;;30.30;;
69989;SDS011;57331;52.054;5.294;2024-03-06T08:58:00;81.68;;;28.08;;
69989;SDS011;57331;52.054;5.294;2024-03-06T09:00:28;74.00;;;28.63;;
69989;SDS011;57331;52.054;5.294;2024-03-06T09:02:55;58.10;;;28.07;;
69989;SDS011;57331;52.054;5.294;2024-03-06T09:05:22;49.95;;;24.27;;
69989;SDS011;57331;52.054;5.294;2024-03-06T09:07:50;53.85;;;27.80;;
69989;SDS011;57331;52.054;5.294;2024-03-06T09:10:17;49.30;;;26.70;;
69989;SDS011;57331;52.054;5.294;2024-03-06T09:12:45;64.63;;;27.10;;
69989;SDS011;57331;52.054;5.294;2024-03-06T09:15:14;51.43;;;27.03;;
69989;SDS011;57331;52.054;5.294;2024-03-06T09:17:42;51.83;;;25.40;;
69989;SDS011;57331;52.054;5.294;2024-03-06T09:20:12;54.60;;;26.38;;
69989;SDS011;57331;52.054;5.294;2024-03-06T09:22:40;46.15;;;25.27;;
69989;SDS011;57331;52.054;5.294;2024-03-06T09:25:08;49.17;;;24.30;;
69989;SDS011;57331;52.054;5.294;2024-03-06T09:27:36;66.97;;;24.27;;
69989;SDS011;57331;52.054;5.294;2024-03-06T09:30:03;48.08;;;23.73;;
69989;SDS011;57331;52.054;5.294;2024-03-06T09:32:30;50.50;;;24.67;;
69989;SDS011;57331;52.054;5.294;2024-03-06T09:34:58;45.97;;;23.75;;
69989;SDS011;57331;52.054;5.294;2024-03-06T09:37:27;48.85;;;25.80;;
69989;SDS011;57331;52.054;5.294;2024-03-06T09:39:55;42.07;;;22.33;;
69989;SDS011;57331;52.054;5.294;2024-03-06T09:42:28;41.30;;;21.73;;
69989;SDS011;57331;52.054;5.294;2024-03-06T09:44:56;39.35;;;21.90;;
69989;SDS011;57331;52.054;5.294;2024-03-06T09:47:23;39.10;;;21.02;;
69989;SDS011;57331;52.054;5.294;2024-03-06T09:49:52;38.80;;;21.85;;
69989;SDS011;57331;52.054;5.294;2024-03-06T09:52:23;38.23;;;18.77;;
69989;SDS011;57331;52.054;5.294;2024-03-06T09:54:53;35.80;;;20.08;;
69989;SDS011;57331;52.054;5.294;2024-03-06T09:57:22;32.70;;;15.93;;
69989;SDS011;57331;52.054;5.294;2024-03-06T09:59:49;35.95;;;19.42;;
69989;SDS011;57331;52.054;5.294;2024-03-06T10:02:18;34.55;;;20.45;;
69989;SDS011;57331;52.054;5.294;2024-03-06T10:04:57;34.57;;;20.40;;
69989;SDS011;57331;52.054;5.294;2024-03-06T10:07:24;40.47;;;20.63;;
69989;SDS011;57331;52.054;5.294;2024-03-06T10:09:53;38.58;;;22.17;;
69989;SDS011;57331;52.054;5.294;2024-03-06T10:12:21;36.17;;;19.55;;
69989;SDS011;57331;52.054;5.294;2024-03-06T10:14:48;34.42;;;19.50;;
69989;SDS011;57331;52.054;5.294;2024-03-06T10:17:22;35.97;;;20.33;;
69989;SDS011;57331;52.054;5.294;2024-03-06T10:19:54;35.38;;;19.88;;
69989;SDS011;57331;52.054;5.294;2024-03-06T10:22:25;35.70;;;19.63;;
69989;SDS011;57331;52.054;5.294;2024-03-06T10:24:55;32.83;;;18.13;;
69989;SDS011;57331;52.054;5.294;2024-03-06T10:27:23;66.72;;;33.42;;
69989;SDS011;57331;52.054;5.294;2024-03-06T10:30:03;35.57;;;19.33;;
69989;SDS011;57331;52.054;5.294;2024-03-06T10:32:32;34.88;;;20.50;;
69989;SDS011;57331;52.054;5.294;2024-03-06T10:35:00;32.33;;;18.77;;
69989;SDS011;57331;52.054;5.294;2024-03-06T10:37:28;33.63;;;19.98;;
69989;SDS011;57331;52.054;5.294;2024-03-06T10:39:55;29.48;;;16.95;;
69989;SDS011;57331;52.054;5.294;2024-03-06T10:42:27;31.60;;;17.93;;
69989;SDS011;57331;52.054;5.294;2024-03-06T10:44:55;36.10;;;19.35;;
69989;SDS011;57331;52.054;5.294;2024-03-06T10:47:26;33.05;;;19.05;;
69989;SDS011;57331;52.054;5.294;2024-03-06T10:49:55;31.58;;;19.05;;
69989;SDS011;57331;52.054;5.294;2024-03-06T10:52:22;31.98;;;18.17;;
69989;SDS011;57331;52.054;5.294;2024-03-06T10:54:50;32.77;;;18.87;;
69989;SDS011;57331;52.054;5.294;2024-03-06T10:57:17;30.25;;;18.48;;
69989;SDS011;57331;52.054;5.294;2024-03-06T10:59:46;33.58;;;18.42;;
69989;SDS011;57331;52.054;5.294;2024-03-06T11:02:15;30.33;;;17.70;;
69989;SDS011;57331;52.054;5.294;2024-03-06T11:04:43;35.17;;;19.23;;
69989;SDS011;57331;52.054;5.294;2024-03-06T11:07:10;30.47;;;18.63;;
69989;SDS011;57331;52.054;5.294;2024-03-06T11:09:41;30.63;;;18.02;;
69989;SDS011;57331;52.054;5.294;2024-03-06T11:12:08;32.80;;;19.23;;
69989;SDS011;57331;52.054;5.294;2024-03-06T11:14:37;31.85;;;18.50;;
69989;SDS011;57331;52.054;5.294;2024-03-06T11:17:08;30.58;;;18.20;;
69989;SDS011;57331;52.054;5.294;2024-03-06T11:23:15;39.00;;;21.52;;
69989;SDS011;57331;52.054;5.294;2024-03-06T11:28:16;33.08;;;19.98;;
69989;SDS011;57331;52.054;5.294;2024-03-06T11:30:48;36.13;;;19.95;;
69989;SDS011;57331;52.054;5.294;2024-03-06T11:33:35;32.50;;;18.30;;
69989;SDS011;57331;52.054;5.294;2024-03-06T11:41:22;31.73;;;17.42;;
69989;SDS011;57331;52.054;5.294;2024-03-06T11:43:52;35.28;;;18.10;;
69989;SDS011;57331;52.054;5.294;2024-03-06T11:46:20;29.70;;;17.37;;
69989;SDS011;57331;52.054;5.294;2024-03-06T11:48:56;27.13;;;13.57;;
69989;SDS011;57331;52.054;5.294;2024-03-06T11:51:24;29.15;;;16.42;;
69989;SDS011;57331;52.054;5.294;2024-03-06T11:53:53;27.38;;;15.73;;
69989;SDS011;57331;52.054;5.294;2024-03-06T11:56:20;28.30;;;15.05;;
69989;SDS011;57331;52.054;5.294;2024-03-06T11:58:48;27.40;;;15.10;;
69989;SDS011;57331;52.054;5.294;2024-03-06T12:01:15;26.17;;;14.40;;
69989;SDS011;57331;52.054;5.294;2024-03-06T12:03:45;22.40;;;12.90;;
69989;SDS011;57331;52.054;5.294;2024-03-06T12:06:14;23.88;;;13.23;;
69989;SDS011;57331;52.054;5.294;2024-03-06T12:08:43;24.38;;;13.23;;
69989;SDS011;57331;52.054;5.294;2024-03-06T12:11:10;26.03;;;12.83;;
69989;SDS011;57331;52.054;5.294;2024-03-06T12:13:37;24.85;;;13.40;;
69989;SDS011;57331;52.054;5.294;2024-03-06T12:16:05;22.58;;;13.95;;
69989;SDS011;57331;52.054;5.294;2024-03-06T12:18:33;24.80;;;15.60;;
69989;SDS011;57331;52.054;5.294;2024-03-06T12:21:01;16.92;;;9.90;;
69989;SDS011;57331;52.054;5.294;2024-03-06T12:23:29;17.90;;;8.87;;
69989;SDS011;57331;52.054;5.294;2024-03-06T12:26:07;19.90;;;9.93;;
69989;SDS011;57331;52.054;5.294;2024-03-06T12:28:37;20.63;;;12.15;;
69989;SDS011;57331;52.054;5.294;2024-03-06T12:31:06;24.92;;;12.98;;
69989;SDS011;57331;52.054;5.294;2024-03-06T12:33:34;21.45;;;13.40;;
69989;SDS011;57331;52.054;5.294;2024-03-06T12:36:05;23.60;;;12.33;;
69989;SDS011;57331;52.054;5.294;2024-03-06T12:38:37;22.58;;;12.77;;
69989;SDS011;57331;52.054;5.294;2024-03-06T12:41:04;23.17;;;14.10;;
69989;SDS011;57331;52.054;5.294;2024-03-06T12:43:32;22.98;;;12.73;;
69989;SDS011;57331;52.054;5.294;2024-03-06T12:46:01;20.65;;;11.88;;
69989;SDS011;57331;52.054;5.294;2024-03-06T12:48:31;17.73;;;11.50;;
69989;SDS011;57331;52.054;5.294;2024-03-06T12:50:59;19.40;;;12.15;;
69989;SDS011;57331;52.054;5.294;2024-03-06T12:53:32;20.77;;;11.70;;
69989;SDS011;57331;52.054;5.294;2024-03-06T12:56:01;23.88;;;10.70;;
69989;SDS011;57331;52.054;5.294;2024-03-06T12:58:29;18.73;;;11.88;;
69989;SDS011;57331;52.054;5.294;2024-03-06T13:01:01;17.17;;;10.65;;
69989;SDS011;57331;52.054;5.294;2024-03-06T13:03:28;11.65;;;7.45;;
69989;SDS011;57331;52.054;5.294;2024-03-06T13:05:56;16.58;;;9.60;;
69989;SDS011;57331;52.054;5.294;2024-03-06T13:08:23;16.05;;;9.90;;
69989;SDS011;57331;52.054;5.294;2024-03-06T13:10:50;15.95;;;9.80;;
69989;SDS011;57331;52.054;5.294;2024-03-06T13:13:17;16.25;;;8.90;;
69989;SDS011;57331;52.054;5.294;2024-03-06T13:15:44;13.00;;;8.02;;
69989;SDS011;57331;52.054;5.294;2024-03-06T13:18:14;11.77;;;5.60;;
69989;SDS011;57331;52.054;5.294;2024-03-06T13:20:42;13.82;;;6.80;;
69989;SDS011;57331;52.054;5.294;2024-03-06T13:23:11;14.10;;;8.50;;
69989;SDS011;57331;52.054;5.294;2024-03-06T13:25:39;13.40;;;7.45;;
69989;SDS011;57331;52.054;5.294;2024-03-06T13:28:06;14.95;;;7.38;;
69989;SDS011;57331;52.054;5.294;2024-03-06T13:30:35;12.93;;;7.45;;
69989;SDS011;57331;52.054;5.294;2024-03-06T13:33:02;12.68;;;7.30;;
69989;SDS011;57331;52.054;5.294;2024-03-06T13:35:29;12.25;;;7.30;;
69989;SDS011;57331;52.054;5.294;2024-03-06T13:37:56;10.15;;;5.15;;
69989;SDS011;57331;52.054;5.294;2024-03-06T13:40:24;12.18;;;6.47;;
69989;SDS011;57331;52.054;5.294;2024-03-06T13:42:53;12.90;;;7.63;;
69989;SDS011;57331;52.054;5.294;2024-03-06T13:45:20;11.05;;;6.40;;
69989;SDS011;57331;52.054;5.294;2024-03-06T13:47:47;11.52;;;6.70;;
69989;SDS011;57331;52.054;5.294;2024-03-06T13:50:16;10.60;;;5.70;;
69989;SDS011;57331;52.054;5.294;2024-03-06T13:52:43;11.25;;;6.20;;
69989;SDS011;57331;52.054;5.294;2024-03-06T13:55:10;10.80;;;5.90;;
69989;SDS011;57331;52.054;5.294;2024-03-06T13:57:39;10.13;;;5.53;;
69989;SDS011;57331;52.054;5.294;2024-03-06T14:00:07;10.65;;;6.45;;
69989;SDS011;57331;52.054;5.294;2024-03-06T14:02:45;9.20;;;5.13;;
69989;SDS011;57331;52.054;5.294;2024-03-06T14:05:14;8.90;;;4.90;;
69989;SDS011;57331;52.054;5.294;2024-03-06T14:07:42;9.85;;;4.88;;
69989;SDS011;57331;52.054;5.294;2024-03-06T14:10:09;8.75;;;4.03;;
69989;SDS011;57331;52.054;5.294;2024-03-06T14:12:37;12.23;;;5.30;;
69989;SDS011;57331;52.054;5.294;2024-03-06T14:15:05;10.10;;;5.82;;
69989;SDS011;57331;52.054;5.294;2024-03-06T14:17:39;11.75;;;6.00;;
69989;SDS011;57331;52.054;5.294;2024-03-06T14:20:07;11.65;;;6.15;;
69989;SDS011;57331;52.054;5.294;2024-03-06T14:22:35;10.00;;;6.00;;
69989;SDS011;57331;52.054;5.294;2024-03-06T14:25:02;9.70;;;5.55;;
69989;SDS011;57331;52.054;5.294;2024-03-06T14:27:29;9.75;;;5.38;;
69989;SDS011;57331;52.054;5.294;2024-03-06T14:29:57;8.43;;;5.17;;
69989;SDS011;57331;52.054;5.294;2024-03-06T14:32:24;9.07;;;4.90;;
69989;SDS011;57331;52.054;5.294;2024-03-06T14:34:52;8.60;;;4.93;;
69989;SDS011;57331;52.054;5.294;2024-03-06T14:37:19;8.63;;;4.28;;
69989;SDS011;57331;52.054;5.294;2024-03-06T14:39:46;7.50;;;4.55;;
69989;SDS011;57331;52.054;5.294;2024-03-06T14:42:14;8.53;;;3.87;;
69989;SDS011;57331;52.054;5.294;2024-03-06T14:44:41;8.25;;;3.45;;